Meteo Giornale » Osservazioni meteo Stati Uniti (USA) » Olathe Johnson Co Executive
ore: 20:53 - Osservazioni Meteo Olathe Johnson Co Executive
Lat. 38° 51' N Lon. 94° 44' W Alt. 334 metri s.l.m.
29 °C
Sereno
Temp. 24 Ore
24 °C
37 °C
Sud
7.4 Km/h
Dew point 18 °C
Umidità 51 %
Visibilità 10 Km
Il sole sorge alle ore 06:47
Il sole tramonta alle ore 19:51
| Data e Ora | Cielo e Fenomeni | T °C | DP °C | Um. % | Pres. hPa | Vis. km | Vento km/h | |
|---|---|---|---|---|---|---|---|---|
| Oggi h: 20:53 | Sereno | 29 | 18 | 51 | 1014 | 10 | S 7.4 | |
| Oggi h: 19:53 | Sereno | 32 | 18 | 43 | 1014 | 10 | N 5.5 | |
| Oggi h: 18:53 | Sereno | 34 | 18 | 38 | 1014 | 10 | S 7.4 | |
| Oggi h: 17:53 | Sereno | 35 | 17 | 34 | 1014 | 10 | S 13 | |
| Oggi h: 16:53 | Sereno | 37 | 17 | 30 | 1014 | 10 | S/SO 16.7 | |
| Oggi h: 15:53 | Sereno | 37 | 18 | 32 | 1014 | 10 | S/SO 18.5 | |
| Oggi h: 14:53 | Sereno | 37 | 17 | 30 | 1014 | 10 | SO 18.5 | |
| Oggi h: 13:53 | Sereno | 36 | 18 | 34 | 1014 | 10 | SO 20.3 | |
| Oggi h: 12:53 | Sereno | 33 | 19 | 43 | 1015 | 10 | SO 16.7 | |
| Oggi h: 11:53 | Sereno | 33 | 18 | 41 | 1016 | 10 | SO 22.2 | |
| Oggi h: 10:53 | Sereno | 31 | 18 | 45 | 1016 | 10 | SO 14.8 | |
| Oggi h: 09:53 | Sereno | 28 | 18 | 54 | 1016 | 10 | SO 16.7 | |
| Oggi h: 08:53 | Nuvoloso | 26 | 17 | 57 | 1016 | 10 | SO 11.1 | |
| Oggi h: 07:53 | Molto Nuvoloso | 26 | 17 | 57 | 1016 | 10 | S/SO 14.8 | |
| Oggi h: 06:53 | Sereno | 24 | 17 | 64 | 1015 | 10 | S 11.1 | |
| Oggi h: 05:53 | Sereno | 24 | 17 | 64 | 1014 | 10 | S 13 | |
| Oggi h: 04:53 | Sereno | 24 | 17 | 64 | 1014 | 10 | S 9.3 | |
| Oggi h: 03:53 | Sereno | 25 | 17 | 61 | 1014 | 10 | S 13 | |
| Oggi h: 02:53 | Sereno | 26 | 16 | 54 | 1014 | 10 | S 14.8 | |
| Oggi h: 01:53 | Sereno | 26 | 16 | 54 | 1013 | 10 | S 9.3 | |
| Oggi h: 00:53 | Sereno | 27 | 16 | 50 | 1012 | 10 | S 13 | |
| Ieri h: 23:53 | Sereno | 29 | 16 | 45 | 1012 | 10 | S 13 | |
| Ieri h: 22:53 | Sereno | 29 | 16 | 45 | 1012 | 10 | S 14.8 | |
| Ieri h: 21:53 | Sereno | 28 | 17 | 51 | 1012 | 10 | S 16.7 | |



